KSMQ

Somerset Airport

Somerville, New Jersey, USA
METAR KSMQ 151353Z AUTO VRB03KT 9SM CLR 26/21 A2992 RMK AO2 SLP130 T02560211
Observed Flight Rules
Aug-15 @ 13:53 UTC (an hour ago) Visual Flight Rules
Wind Visibility Clouds
Variable at 3 knots 9 miles
  • Clear skies
Temperatures Readings
Current 26°C / 79°F
Dewpoint 21°C / 70°F
Humidity 74%
Altimeter 29.92" Hg
Pressure 1013 hPa
Elevation 30
METAR KSMQ 151353Z AUTO VRB03KT 9SM CLR 26/21 A2992 RMK AO2 SLP130 T02560211
Observed Flight Rules
Aug-15 @ 13:53 UTC
(an hour ago)
VFR
Wind Visibility
Variable at 3 knots 9 miles
Clouds
  • Clear skies
Temperature Dewpoint
26°C / 79°F 21°C / 70°F
Humidity Altimeter Pressure
74% 29.92" Hg 1013 hPa